sensor_id;sensor_type;location;lat;lon;timestamp;P1;durP1;ratioP1;P2;durP2;ratioP2
10872;SDS011;34586;53.616;10.032;2023-04-07T00:00:19;8.87;;;6.60;;
10872;SDS011;34586;53.616;10.032;2023-04-07T00:02:45;9.27;;;7.10;;
10872;SDS011;34586;53.616;10.032;2023-04-07T00:05:11;11.17;;;7.17;;
10872;SDS011;34586;53.616;10.032;2023-04-07T00:07:36;9.70;;;6.87;;
10872;SDS011;34586;53.616;10.032;2023-04-07T00:10:02;11.43;;;6.80;;
10872;SDS011;34586;53.616;10.032;2023-04-07T00:12:28;8.60;;;6.77;;
10872;SDS011;34586;53.616;10.032;2023-04-07T00:14:53;8.90;;;7.50;;
10872;SDS011;34586;53.616;10.032;2023-04-07T00:17:19;10.03;;;7.43;;
10872;SDS011;34586;53.616;10.032;2023-04-07T00:19:45;9.33;;;7.17;;
10872;SDS011;34586;53.616;10.032;2023-04-07T00:22:10;7.83;;;7.03;;
10872;SDS011;34586;53.616;10.032;2023-04-07T00:24:36;10.63;;;7.70;;
10872;SDS011;34586;53.616;10.032;2023-04-07T00:27:01;9.87;;;7.10;;
10872;SDS011;34586;53.616;10.032;2023-04-07T00:29:27;7.77;;;6.53;;
10872;SDS011;34586;53.616;10.032;2023-04-07T00:31:52;8.07;;;6.70;;
10872;SDS011;34586;53.616;10.032;2023-04-07T00:34:18;8.50;;;6.87;;
10872;SDS011;34586;53.616;10.032;2023-04-07T00:36:44;9.77;;;7.40;;
10872;SDS011;34586;53.616;10.032;2023-04-07T00:39:15;8.47;;;7.30;;
10872;SDS011;34586;53.616;10.032;2023-04-07T00:41:45;8.77;;;7.03;;
10872;SDS011;34586;53.616;10.032;2023-04-07T00:44:11;9.70;;;7.53;;
10872;SDS011;34586;53.616;10.032;2023-04-07T00:46:37;7.77;;;6.83;;
10872;SDS011;34586;53.616;10.032;2023-04-07T00:49:03;8.60;;;6.80;;
10872;SDS011;34586;53.616;10.032;2023-04-07T00:51:30;8.67;;;6.57;;
10872;SDS011;34586;53.616;10.032;2023-04-07T00:53:56;7.73;;;6.50;;
10872;SDS011;34586;53.616;10.032;2023-04-07T00:56:22;8.47;;;6.20;;
10872;SDS011;34586;53.616;10.032;2023-04-07T00:58:47;8.67;;;6.57;;
10872;SDS011;34586;53.616;10.032;2023-04-07T01:01:34;6.77;;;5.90;;
10872;SDS011;34586;53.616;10.032;2023-04-07T01:04:26;7.87;;;7.07;;
10872;SDS011;34586;53.616;10.032;2023-04-07T01:06:54;9.33;;;6.63;;
10872;SDS011;34586;53.616;10.032;2023-04-07T01:09:28;7.10;;;6.40;;
10872;SDS011;34586;53.616;10.032;2023-04-07T01:12:04;8.23;;;6.47;;
10872;SDS011;34586;53.616;10.032;2023-04-07T01:14:51;8.43;;;6.27;;
10872;SDS011;34586;53.616;10.032;2023-04-07T01:17:22;8.97;;;6.57;;
10872;SDS011;34586;53.616;10.032;2023-04-07T01:22:27;7.53;;;6.43;;
10872;SDS011;34586;53.616;10.032;2023-04-07T01:29:55;7.67;;;6.37;;
10872;SDS011;34586;53.616;10.032;2023-04-07T01:32:23;6.53;;;5.83;;
10872;SDS011;34586;53.616;10.032;2023-04-07T01:34:51;7.70;;;6.70;;
10872;SDS011;34586;53.616;10.032;2023-04-07T01:37:18;7.30;;;6.57;;
10872;SDS011;34586;53.616;10.032;2023-04-07T01:39:45;7.03;;;6.10;;
10872;SDS011;34586;53.616;10.032;2023-04-07T01:42:11;7.23;;;5.70;;
10872;SDS011;34586;53.616;10.032;2023-04-07T01:44:38;6.40;;;5.80;;
10872;SDS011;34586;53.616;10.032;2023-04-07T01:47:05;7.37;;;6.27;;
10872;SDS011;34586;53.616;10.032;2023-04-07T01:49:31;8.50;;;6.17;;
10872;SDS011;34586;53.616;10.032;2023-04-07T01:51:59;7.47;;;5.97;;
10872;SDS011;34586;53.616;10.032;2023-04-07T01:54:26;7.50;;;5.60;;
10872;SDS011;34586;53.616;10.032;2023-04-07T01:56:52;7.30;;;5.83;;
10872;SDS011;34586;53.616;10.032;2023-04-07T01:59:18;8.10;;;5.93;;
10872;SDS011;34586;53.616;10.032;2023-04-07T02:01:43;7.20;;;5.37;;
10872;SDS011;34586;53.616;10.032;2023-04-07T02:04:26;5.97;;;5.40;;
10872;SDS011;34586;53.616;10.032;2023-04-07T02:07:02;7.17;;;5.57;;
10872;SDS011;34586;53.616;10.032;2023-04-07T02:09:33;5.37;;;4.87;;
10872;SDS011;34586;53.616;10.032;2023-04-07T02:12:04;6.50;;;5.60;;
10872;SDS011;34586;53.616;10.032;2023-04-07T02:14:33;5.17;;;4.67;;
10872;SDS011;34586;53.616;10.032;2023-04-07T02:17:00;5.80;;;5.30;;
10872;SDS011;34586;53.616;10.032;2023-04-07T02:19:28;7.70;;;5.20;;
10872;SDS011;34586;53.616;10.032;2023-04-07T02:21:54;6.70;;;5.23;;
10872;SDS011;34586;53.616;10.032;2023-04-07T02:24:20;5.60;;;5.07;;
10872;SDS011;34586;53.616;10.032;2023-04-07T02:26:46;6.53;;;4.93;;
10872;SDS011;34586;53.616;10.032;2023-04-07T02:29:12;7.87;;;4.83;;
10872;SDS011;34586;53.616;10.032;2023-04-07T02:31:38;5.87;;;5.10;;
10872;SDS011;34586;53.616;10.032;2023-04-07T02:34:03;5.23;;;4.73;;
10872;SDS011;34586;53.616;10.032;2023-04-07T02:36:29;5.00;;;4.50;;
10872;SDS011;34586;53.616;10.032;2023-04-07T02:38:55;6.03;;;4.70;;
10872;SDS011;34586;53.616;10.032;2023-04-07T02:41:21;5.27;;;4.60;;
10872;SDS011;34586;53.616;10.032;2023-04-07T02:43:46;7.17;;;4.43;;
10872;SDS011;34586;53.616;10.032;2023-04-07T02:46:12;5.23;;;4.50;;
10872;SDS011;34586;53.616;10.032;2023-04-07T02:48:38;7.10;;;4.90;;
10872;SDS011;34586;53.616;10.032;2023-04-07T02:51:03;5.07;;;4.57;;
10872;SDS011;34586;53.616;10.032;2023-04-07T02:53:29;5.10;;;4.60;;
10872;SDS011;34586;53.616;10.032;2023-04-07T02:55:55;4.40;;;4.00;;
10872;SDS011;34586;53.616;10.032;2023-04-07T02:58:20;5.37;;;4.70;;
10872;SDS011;34586;53.616;10.032;2023-04-07T03:00:49;6.33;;;4.23;;
10872;SDS011;34586;53.616;10.032;2023-04-07T03:03:15;5.17;;;4.67;;
10872;SDS011;34586;53.616;10.032;2023-04-07T03:05:40;4.93;;;4.40;;
10872;SDS011;34586;53.616;10.032;2023-04-07T03:08:06;4.83;;;4.33;;
10872;SDS011;34586;53.616;10.032;2023-04-07T03:10:31;5.67;;;3.83;;
10872;SDS011;34586;53.616;10.032;2023-04-07T03:12:57;6.40;;;4.70;;
10872;SDS011;34586;53.616;10.032;2023-04-07T03:15:23;4.83;;;4.33;;
10872;SDS011;34586;53.616;10.032;2023-04-07T03:17:48;4.57;;;4.10;;
10872;SDS011;34586;53.616;10.032;2023-04-07T03:20:14;5.10;;;4.10;;
10872;SDS011;34586;53.616;10.032;2023-04-07T03:22:41;4.90;;;4.50;;
10872;SDS011;34586;53.616;10.032;2023-04-07T03:25:06;5.30;;;4.33;;
10872;SDS011;34586;53.616;10.032;2023-04-07T03:27:32;4.90;;;4.30;;
10872;SDS011;34586;53.616;10.032;2023-04-07T03:29:58;4.40;;;4.00;;
10872;SDS011;34586;53.616;10.032;2023-04-07T03:32:23;6.30;;;4.23;;
10872;SDS011;34586;53.616;10.032;2023-04-07T03:34:49;5.53;;;4.37;;
10872;SDS011;34586;53.616;10.032;2023-04-07T03:37:14;5.37;;;4.20;;
10872;SDS011;34586;53.616;10.032;2023-04-07T03:39:40;6.33;;;4.50;;
10872;SDS011;34586;53.616;10.032;2023-04-07T03:42:06;4.77;;;4.30;;
10872;SDS011;34586;53.616;10.032;2023-04-07T03:44:31;5.80;;;4.23;;
10872;SDS011;34586;53.616;10.032;2023-04-07T03:46:57;5.07;;;4.40;;
10872;SDS011;34586;53.616;10.032;2023-04-07T03:49:23;4.87;;;4.43;;
10872;SDS011;34586;53.616;10.032;2023-04-07T03:51:48;5.27;;;4.50;;
10872;SDS011;34586;53.616;10.032;2023-04-07T03:54:14;5.20;;;4.70;;
10872;SDS011;34586;53.616;10.032;2023-04-07T03:56:40;5.60;;;4.53;;
10872;SDS011;34586;53.616;10.032;2023-04-07T03:59:05;4.90;;;4.40;;
10872;SDS011;34586;53.616;10.032;2023-04-07T04:01:31;5.73;;;4.80;;
10872;SDS011;34586;53.616;10.032;2023-04-07T04:03:57;7.07;;;4.80;;
10872;SDS011;34586;53.616;10.032;2023-04-07T04:06:22;6.40;;;4.23;;
10872;SDS011;34586;53.616;10.032;2023-04-07T04:08:48;4.97;;;4.33;;
10872;SDS011;34586;53.616;10.032;2023-04-07T04:11:14;6.47;;;4.63;;
10872;SDS011;34586;53.616;10.032;2023-04-07T04:13:39;5.60;;;4.17;;
10872;SDS011;34586;53.616;10.032;2023-04-07T04:16:05;5.13;;;4.47;;
10872;SDS011;34586;53.616;10.032;2023-04-07T04:18:31;5.07;;;3.93;;
10872;SDS011;34586;53.616;10.032;2023-04-07T04:20:57;6.03;;;4.67;;
10872;SDS011;34586;53.616;10.032;2023-04-07T04:23:22;4.77;;;4.37;;
10872;SDS011;34586;53.616;10.032;2023-04-07T04:25:48;7.93;;;4.70;;
10872;SDS011;34586;53.616;10.032;2023-04-07T04:28:13;5.03;;;4.33;;
10872;SDS011;34586;53.616;10.032;2023-04-07T04:30:40;5.40;;;4.40;;
10872;SDS011;34586;53.616;10.032;2023-04-07T04:33:06;5.13;;;4.40;;
10872;SDS011;34586;53.616;10.032;2023-04-07T04:35:31;4.40;;;4.00;;
10872;SDS011;34586;53.616;10.032;2023-04-07T04:37:57;6.07;;;4.53;;
10872;SDS011;34586;53.616;10.032;2023-04-07T04:40:23;6.47;;;4.17;;
10872;SDS011;34586;53.616;10.032;2023-04-07T04:42:48;4.23;;;3.83;;
10872;SDS011;34586;53.616;10.032;2023-04-07T04:45:14;5.83;;;4.77;;
10872;SDS011;34586;53.616;10.032;2023-04-07T04:47:40;4.73;;;4.23;;
10872;SDS011;34586;53.616;10.032;2023-04-07T04:50:08;5.20;;;4.33;;
10872;SDS011;34586;53.616;10.032;2023-04-07T04:52:34;5.23;;;4.43;;
10872;SDS011;34586;53.616;10.032;2023-04-07T04:54:59;6.00;;;4.60;;
10872;SDS011;34586;53.616;10.032;2023-04-07T04:57:25;4.67;;;4.10;;
10872;SDS011;34586;53.616;10.032;2023-04-07T04:59:51;5.00;;;4.50;;
10872;SDS011;34586;53.616;10.032;2023-04-07T05:02:16;4.97;;;4.20;;
10872;SDS011;34586;53.616;10.032;2023-04-07T05:04:42;4.67;;;4.20;;
10872;SDS011;34586;53.616;10.032;2023-04-07T05:07:07;5.83;;;4.50;;
10872;SDS011;34586;53.616;10.032;2023-04-07T05:09:33;4.97;;;4.30;;
10872;SDS011;34586;53.616;10.032;2023-04-07T05:11:58;5.50;;;4.50;;
10872;SDS011;34586;53.616;10.032;2023-04-07T05:14:25;4.67;;;4.10;;
10872;SDS011;34586;53.616;10.032;2023-04-07T05:16:51;4.90;;;4.00;;
10872;SDS011;34586;53.616;10.032;2023-04-07T05:19:18;5.63;;;4.70;;
10872;SDS011;34586;53.616;10.032;2023-04-07T05:21:43;4.70;;;4.30;;
10872;SDS011;34586;53.616;10.032;2023-04-07T05:24:09;6.67;;;4.57;;
10872;SDS011;34586;53.616;10.032;2023-04-07T05:26:35;6.70;;;4.50;;
10872;SDS011;34586;53.616;10.032;2023-04-07T05:29:00;6.50;;;4.57;;
10872;SDS011;34586;53.616;10.032;2023-04-07T05:31:26;6.30;;;4.53;;
10872;SDS011;34586;53.616;10.032;2023-04-07T05:33:51;6.23;;;4.67;;
10872;SDS011;34586;53.616;10.032;2023-04-07T05:36:17;7.77;;;4.90;;
10872;SDS011;34586;53.616;10.032;2023-04-07T05:38:43;6.80;;;5.00;;
10872;SDS011;34586;53.616;10.032;2023-04-07T05:41:08;4.83;;;4.27;;
10872;SDS011;34586;53.616;10.032;2023-04-07T05:43:34;5.07;;;4.17;;
10872;SDS011;34586;53.616;10.032;2023-04-07T05:46:00;5.33;;;4.57;;
10872;SDS011;34586;53.616;10.032;2023-04-07T05:48:25;6.40;;;4.90;;
10872;SDS011;34586;53.616;10.032;2023-04-07T05:50:51;5.50;;;4.93;;
10872;SDS011;34586;53.616;10.032;2023-04-07T05:53:16;5.23;;;4.50;;
10872;SDS011;34586;53.616;10.032;2023-04-07T05:55:42;6.57;;;4.57;;
10872;SDS011;34586;53.616;10.032;2023-04-07T05:58:07;6.83;;;4.83;;
10872;SDS011;34586;53.616;10.032;2023-04-07T06:00:33;6.63;;;4.70;;
10872;SDS011;34586;53.616;10.032;2023-04-07T06:02:59;6.50;;;4.50;;
10872;SDS011;34586;53.616;10.032;2023-04-07T06:05:25;7.03;;;4.93;;
10872;SDS011;34586;53.616;10.032;2023-04-07T06:07:51;5.23;;;4.63;;
10872;SDS011;34586;53.616;10.032;2023-04-07T06:10:18;6.10;;;4.93;;
10872;SDS011;34586;53.616;10.032;2023-04-07T06:12:43;5.30;;;4.67;;
10872;SDS011;34586;53.616;10.032;2023-04-07T06:15:09;6.60;;;5.00;;
10872;SDS011;34586;53.616;10.032;2023-04-07T06:17:35;5.40;;;4.77;;
10872;SDS011;34586;53.616;10.032;2023-04-07T06:20:01;5.10;;;4.53;;
10872;SDS011;34586;53.616;10.032;2023-04-07T06:22:26;5.67;;;4.77;;
10872;SDS011;34586;53.616;10.032;2023-04-07T06:24:52;5.20;;;4.70;;
10872;SDS011;34586;53.616;10.032;2023-04-07T06:27:18;4.73;;;4.30;;
10872;SDS011;34586;53.616;10.032;2023-04-07T06:29:43;6.20;;;4.63;;
10872;SDS011;34586;53.616;10.032;2023-04-07T06:32:09;6.83;;;4.70;;
10872;SDS011;34586;53.616;10.032;2023-04-07T06:34:35;6.37;;;4.80;;
10872;SDS011;34586;53.616;10.032;2023-04-07T06:37:00;7.93;;;5.20;;
10872;SDS011;34586;53.616;10.032;2023-04-07T06:39:26;6.63;;;4.70;;
10872;SDS011;34586;53.616;10.032;2023-04-07T06:41:52;6.70;;;4.97;;
10872;SDS011;34586;53.616;10.032;2023-04-07T06:44:17;7.03;;;5.00;;
10872;SDS011;34586;53.616;10.032;2023-04-07T06:46:43;6.20;;;5.00;;
10872;SDS011;34586;53.616;10.032;2023-04-07T06:49:11;6.83;;;5.03;;
10872;SDS011;34586;53.616;10.032;2023-04-07T06:51:37;7.07;;;5.07;;
10872;SDS011;34586;53.616;10.032;2023-04-07T06:54:02;9.53;;;5.17;;
10872;SDS011;34586;53.616;10.032;2023-04-07T06:56:29;5.93;;;5.33;;
10872;SDS011;34586;53.616;10.032;2023-04-07T06:58:55;7.70;;;5.57;;
10872;SDS011;34586;53.616;10.032;2023-04-07T07:01:20;6.17;;;5.03;;
10872;SDS011;34586;53.616;10.032;2023-04-07T07:03:46;8.13;;;4.80;;
10872;SDS011;34586;53.616;10.032;2023-04-07T07:06:12;5.53;;;4.97;;
10872;SDS011;34586;53.616;10.032;2023-04-07T07:08:37;5.83;;;4.80;;
10872;SDS011;34586;53.616;10.032;2023-04-07T07:11:03;5.30;;;4.80;;
10872;SDS011;34586;53.616;10.032;2023-04-07T07:13:29;5.13;;;4.63;;
10872;SDS011;34586;53.616;10.032;2023-04-07T07:15:55;5.90;;;4.87;;
10872;SDS011;34586;53.616;10.032;2023-04-07T07:18:20;5.90;;;4.37;;
10872;SDS011;34586;53.616;10.032;2023-04-07T07:20:46;8.13;;;5.17;;
10872;SDS011;34586;53.616;10.032;2023-04-07T07:23:11;6.70;;;4.80;;
10872;SDS011;34586;53.616;10.032;2023-04-07T07:25:37;7.33;;;4.90;;
10872;SDS011;34586;53.616;10.032;2023-04-07T07:28:03;5.43;;;4.47;;
10872;SDS011;34586;53.616;10.032;2023-04-07T07:30:28;6.40;;;4.90;;
10872;SDS011;34586;53.616;10.032;2023-04-07T07:32:54;7.73;;;4.67;;
10872;SDS011;34586;53.616;10.032;2023-04-07T07:35:20;9.03;;;4.70;;
10872;SDS011;34586;53.616;10.032;2023-04-07T07:37:46;7.57;;;4.53;;
10872;SDS011;34586;53.616;10.032;2023-04-07T07:40:13;5.53;;;5.00;;
10872;SDS011;34586;53.616;10.032;2023-04-07T07:42:38;5.10;;;4.60;;
10872;SDS011;34586;53.616;10.032;2023-04-07T07:45:04;7.00;;;4.30;;
10872;SDS011;34586;53.616;10.032;2023-04-07T07:47:30;5.13;;;4.60;;
10872;SDS011;34586;53.616;10.032;2023-04-07T07:49:56;5.33;;;4.43;;
10872;SDS011;34586;53.616;10.032;2023-04-07T07:52:22;5.90;;;4.77;;
10872;SDS011;34586;53.616;10.032;2023-04-07T07:54:48;6.03;;;4.80;;
10872;SDS011;34586;53.616;10.032;2023-04-07T07:57:14;5.50;;;4.67;;
10872;SDS011;34586;53.616;10.032;2023-04-07T07:59:40;7.43;;;4.27;;
10872;SDS011;34586;53.616;10.032;2023-04-07T08:02:06;4.97;;;4.03;;
10872;SDS011;34586;53.616;10.032;2023-04-07T08:04:33;5.43;;;4.23;;
10872;SDS011;34586;53.616;10.032;2023-04-07T08:07:00;6.17;;;4.50;;
10872;SDS011;34586;53.616;10.032;2023-04-07T08:09:26;4.83;;;4.20;;
10872;SDS011;34586;53.616;10.032;2023-04-07T08:11:51;6.20;;;4.50;;
10872;SDS011;34586;53.616;10.032;2023-04-07T08:14:17;4.93;;;3.73;;
10872;SDS011;34586;53.616;10.032;2023-04-07T08:16:43;5.17;;;4.67;;
10872;SDS011;34586;53.616;10.032;2023-04-07T08:19:10;5.17;;;4.30;;
10872;SDS011;34586;53.616;10.032;2023-04-07T08:21:37;6.30;;;4.30;;
10872;SDS011;34586;53.616;10.032;2023-04-07T08:24:03;6.80;;;4.67;;
10872;SDS011;34586;53.616;10.032;2023-04-07T08:26:28;4.40;;;4.00;;
10872;SDS011;34586;53.616;10.032;2023-04-07T08:28:54;5.87;;;4.53;;
10872;SDS011;34586;53.616;10.032;2023-04-07T08:31:20;6.57;;;4.67;;
10872;SDS011;34586;53.616;10.032;2023-04-07T08:33:46;6.10;;;4.97;;
10872;SDS011;34586;53.616;10.032;2023-04-07T08:36:11;5.37;;;4.47;;
10872;SDS011;34586;53.616;10.032;2023-04-07T08:38:37;5.33;;;4.33;;
10872;SDS011;34586;53.616;10.032;2023-04-07T08:41:12;4.80;;;4.00;;
10872;SDS011;34586;53.616;10.032;2023-04-07T08:43:43;6.33;;;4.67;;
10872;SDS011;34586;53.616;10.032;2023-04-07T08:46:10;5.63;;;4.30;;
10872;SDS011;34586;53.616;10.032;2023-04-07T08:48:37;6.27;;;4.07;;
10872;SDS011;34586;53.616;10.032;2023-04-07T08:51:05;4.93;;;3.97;;
10872;SDS011;34586;53.616;10.032;2023-04-07T08:53:37;5.33;;;4.20;;
10872;SDS011;34586;53.616;10.032;2023-04-07T08:56:07;5.00;;;4.40;;
10872;SDS011;34586;53.616;10.032;2023-04-07T08:58:37;8.07;;;4.00;;
10872;SDS011;34586;53.616;10.032;2023-04-07T09:01:04;4.47;;;3.77;;
10872;SDS011;34586;53.616;10.032;2023-04-07T09:03:33;6.37;;;4.30;;
10872;SDS011;34586;53.616;10.032;2023-04-07T09:06:01;5.83;;;4.73;;
10872;SDS011;34586;53.616;10.032;2023-04-07T09:08:27;5.37;;;3.93;;
10872;SDS011;34586;53.616;10.032;2023-04-07T09:10:53;5.47;;;4.33;;
10872;SDS011;34586;53.616;10.032;2023-04-07T09:13:23;5.80;;;4.07;;
10872;SDS011;34586;53.616;10.032;2023-04-07T09:16:39;5.57;;;4.07;;
10872;SDS011;34586;53.616;10.032;2023-04-07T09:19:05;7.23;;;4.10;;
10872;SDS011;34586;53.616;10.032;2023-04-07T09:21:49;5.23;;;4.03;;
10872;SDS011;34586;53.616;10.032;2023-04-07T09:24:20;4.73;;;4.20;;
10872;SDS011;34586;53.616;10.032;2023-04-07T09:26:47;4.50;;;3.90;;
10872;SDS011;34586;53.616;10.032;2023-04-07T09:29:17;4.97;;;4.20;;
10872;SDS011;34586;53.616;10.032;2023-04-07T09:31:49;5.93;;;4.70;;
10872;SDS011;34586;53.616;10.032;2023-04-07T09:34:29;6.33;;;4.50;;
10872;SDS011;34586;53.616;10.032;2023-04-07T09:36:58;6.00;;;4.43;;
10872;SDS011;34586;53.616;10.032;2023-04-07T09:39:30;5.57;;;5.00;;
10872;SDS011;34586;53.616;10.032;2023-04-07T09:41:56;5.83;;;4.93;;
10872;SDS011;34586;53.616;10.032;2023-04-07T09:44:23;5.07;;;4.50;;
10872;SDS011;34586;53.616;10.032;2023-04-07T09:49:25;5.17;;;4.30;;
10872;SDS011;34586;53.616;10.032;2023-04-07T09:51:58;5.17;;;4.00;;
10872;SDS011;34586;53.616;10.032;2023-04-07T09:54:35;5.63;;;4.33;;
10872;SDS011;34586;53.616;10.032;2023-04-07T09:57:18;5.37;;;4.10;;
10872;SDS011;34586;53.616;10.032;2023-04-07T09:59:45;4.33;;;3.90;;
10872;SDS011;34586;53.616;10.032;2023-04-07T10:02:12;4.93;;;4.33;;
10872;SDS011;34586;53.616;10.032;2023-04-07T10:04:50;4.67;;;3.73;;
10872;SDS011;34586;53.616;10.032;2023-04-07T10:07:16;4.60;;;3.43;;
10872;SDS011;34586;53.616;10.032;2023-04-07T10:09:42;5.07;;;3.93;;
10872;SDS011;34586;53.616;10.032;2023-04-07T10:12:07;4.97;;;3.80;;
10872;SDS011;34586;53.616;10.032;2023-04-07T10:14:33;7.07;;;3.57;;
10872;SDS011;34586;53.616;10.032;2023-04-07T10:17:00;4.83;;;3.47;;
10872;SDS011;34586;53.616;10.032;2023-04-07T10:19:31;5.17;;;3.63;;
10872;SDS011;34586;53.616;10.032;2023-04-07T10:21:57;3.40;;;3.10;;
10872;SDS011;34586;53.616;10.032;2023-04-07T10:27:20;4.77;;;3.80;;
10872;SDS011;34586;53.616;10.032;2023-04-07T10:29:51;3.93;;;3.53;;
10872;SDS011;34586;53.616;10.032;2023-04-07T10:32:18;5.13;;;3.53;;
10872;SDS011;34586;53.616;10.032;2023-04-07T10:37:13;3.90;;;3.17;;
10872;SDS011;34586;53.616;10.032;2023-04-07T10:39:41;5.33;;;3.40;;
10872;SDS011;34586;53.616;10.032;2023-04-07T10:42:33;5.93;;;3.57;;
10872;SDS011;34586;53.616;10.032;2023-04-07T10:45:02;5.73;;;3.57;;
10872;SDS011;34586;53.616;10.032;2023-04-07T10:47:29;5.50;;;4.27;;
10872;SDS011;34586;53.616;10.032;2023-04-07T10:52:40;4.30;;;3.90;;
10872;SDS011;34586;53.616;10.032;2023-04-07T11:03:28;4.23;;;3.50;;
10872;SDS011;34586;53.616;10.032;2023-04-07T11:06:04;5.47;;;4.50;;
10872;SDS011;34586;53.616;10.032;2023-04-07T11:08:40;5.73;;;4.23;;
10872;SDS011;34586;53.616;10.032;2023-04-07T11:11:07;5.37;;;4.37;;
10872;SDS011;34586;53.616;10.032;2023-04-07T11:13:41;6.20;;;4.47;;
10872;SDS011;34586;53.616;10.032;2023-04-07T11:16:08;4.33;;;3.93;;
10872;SDS011;34586;53.616;10.032;2023-04-07T11:18:34;5.43;;;4.77;;
10872;SDS011;34586;53.616;10.032;2023-04-07T11:21:01;9.13;;;4.50;;
10872;SDS011;34586;53.616;10.032;2023-04-07T11:23:29;6.50;;;4.53;;
10872;SDS011;34586;53.616;10.032;2023-04-07T11:26:10;6.03;;;4.23;;
10872;SDS011;34586;53.616;10.032;2023-04-07T11:28:47;4.73;;;4.10;;
10872;SDS011;34586;53.616;10.032;2023-04-07T11:31:26;4.67;;;4.13;;
10872;SDS011;34586;53.616;10.032;2023-04-07T11:34:12;4.80;;;3.70;;
10872;SDS011;34586;53.616;10.032;2023-04-07T11:36:39;4.30;;;3.90;;
10872;SDS011;34586;53.616;10.032;2023-04-07T11:39:16;6.47;;;3.60;;
10872;SDS011;34586;53.616;10.032;2023-04-07T11:41:46;4.37;;;3.10;;
10872;SDS011;34586;53.616;10.032;2023-04-07T11:44:13;3.50;;;3.20;;
10872;SDS011;34586;53.616;10.032;2023-04-07T11:46:52;3.73;;;3.10;;
10872;SDS011;34586;53.616;10.032;2023-04-07T11:49:22;4.87;;;2.80;;
10872;SDS011;34586;53.616;10.032;2023-04-07T11:52:03;5.00;;;3.20;;
10872;SDS011;34586;53.616;10.032;2023-04-07T11:54:40;2.73;;;2.53;;
10872;SDS011;34586;53.616;10.032;2023-04-07T11:57:06;3.90;;;2.90;;
10872;SDS011;34586;53.616;10.032;2023-04-07T11:59:34;3.90;;;2.70;;
10872;SDS011;34586;53.616;10.032;2023-04-07T12:02:00;2.93;;;2.63;;
10872;SDS011;34586;53.616;10.032;2023-04-07T12:04:26;3.83;;;2.67;;
10872;SDS011;34586;53.616;10.032;2023-04-07T12:06:51;3.07;;;2.77;;
10872;SDS011;34586;53.616;10.032;2023-04-07T12:09:24;2.77;;;2.47;;
10872;SDS011;34586;53.616;10.032;2023-04-07T12:11:53;3.37;;;2.63;;
10872;SDS011;34586;53.616;10.032;2023-04-07T12:14:21;3.03;;;2.80;;
10872;SDS011;34586;53.616;10.032;2023-04-07T12:16:46;3.53;;;2.90;;
10872;SDS011;34586;53.616;10.032;2023-04-07T12:19:12;4.37;;;2.60;;
10872;SDS011;34586;53.616;10.032;2023-04-07T12:21:37;4.73;;;2.50;;
10872;SDS011;34586;53.616;10.032;2023-04-07T12:24:03;2.93;;;2.57;;
10872;SDS011;34586;53.616;10.032;2023-04-07T12:26:28;4.10;;;2.30;;
10872;SDS011;34586;53.616;10.032;2023-04-07T12:28:54;3.20;;;2.70;;
10872;SDS011;34586;53.616;10.032;2023-04-07T12:31:20;2.00;;;1.90;;
10872;SDS011;34586;53.616;10.032;2023-04-07T12:33:46;2.87;;;2.07;;
10872;SDS011;34586;53.616;10.032;2023-04-07T12:36:11;2.70;;;1.50;;
10872;SDS011;34586;53.616;10.032;2023-04-07T12:38:37;2.23;;;2.03;;
10872;SDS011;34586;53.616;10.032;2023-04-07T12:41:03;1.87;;;1.60;;
10872;SDS011;34586;53.616;10.032;2023-04-07T12:43:29;2.67;;;1.97;;
10872;SDS011;34586;53.616;10.032;2023-04-07T12:45:55;3.07;;;1.70;;
10872;SDS011;34586;53.616;10.032;2023-04-07T12:48:21;2.10;;;1.70;;
10872;SDS011;34586;53.616;10.032;2023-04-07T12:50:47;3.27;;;1.70;;
10872;SDS011;34586;53.616;10.032;2023-04-07T12:53:13;1.53;;;1.43;;
10872;SDS011;34586;53.616;10.032;2023-04-07T12:55:39;1.57;;;1.20;;
10872;SDS011;34586;53.616;10.032;2023-04-07T12:58:06;2.10;;;1.40;;
10872;SDS011;34586;53.616;10.032;2023-04-07T13:00:31;1.47;;;1.17;;
10872;SDS011;34586;53.616;10.032;2023-04-07T13:02:57;2.33;;;1.20;;
10872;SDS011;34586;53.616;10.032;2023-04-07T13:05:23;2.97;;;1.40;;
10872;SDS011;34586;53.616;10.032;2023-04-07T13:07:48;1.50;;;1.07;;
10872;SDS011;34586;53.616;10.032;2023-04-07T13:10:14;1.50;;;1.13;;
10872;SDS011;34586;53.616;10.032;2023-04-07T13:12:39;1.50;;;1.27;;
10872;SDS011;34586;53.616;10.032;2023-04-07T13:15:06;1.67;;;1.20;;
10872;SDS011;34586;53.616;10.032;2023-04-07T13:17:32;1.67;;;1.30;;
10872;SDS011;34586;53.616;10.032;2023-04-07T13:20:00;1.27;;;1.17;;
10872;SDS011;34586;53.616;10.032;2023-04-07T13:22:27;1.30;;;1.20;;
10872;SDS011;34586;53.616;10.032;2023-04-07T13:24:53;1.40;;;1.30;;
10872;SDS011;34586;53.616;10.032;2023-04-07T13:27:19;1.10;;;1.10;;
10872;SDS011;34586;53.616;10.032;2023-04-07T13:29:45;1.07;;;1.07;;
10872;SDS011;34586;53.616;10.032;2023-04-07T13:32:11;2.00;;;1.20;;
10872;SDS011;34586;53.616;10.032;2023-04-07T13:34:37;1.33;;;1.20;;
10872;SDS011;34586;53.616;10.032;2023-04-07T13:37:03;2.30;;;1.57;;
10872;SDS011;34586;53.616;10.032;2023-04-07T13:39:30;2.67;;;1.40;;
10872;SDS011;34586;53.616;10.032;2023-04-07T13:41:56;4.67;;;1.33;;
10872;SDS011;34586;53.616;10.032;2023-04-07T13:44:22;1.40;;;1.30;;
10872;SDS011;34586;53.616;10.032;2023-04-07T13:46:48;1.50;;;1.40;;
10872;SDS011;34586;53.616;10.032;2023-04-07T13:49:14;1.70;;;1.50;;
10872;SDS011;34586;53.616;10.032;2023-04-07T13:51:40;3.37;;;1.70;;
10872;SDS011;34586;53.616;10.032;2023-04-07T13:54:06;3.27;;;1.73;;
10872;SDS011;34586;53.616;10.032;2023-04-07T13:56:32;4.60;;;1.60;;
10872;SDS011;34586;53.616;10.032;2023-04-07T13:58:59;2.23;;;1.90;;
10872;SDS011;34586;53.616;10.032;2023-04-07T14:01:25;2.87;;;2.00;;
10872;SDS011;34586;53.616;10.032;2023-04-07T14:03:52;2.07;;;1.70;;
10872;SDS011;34586;53.616;10.032;2023-04-07T14:06:18;4.17;;;1.90;;
10872;SDS011;34586;53.616;10.032;2023-04-07T14:08:46;2.20;;;2.00;;
10872;SDS011;34586;53.616;10.032;2023-04-07T14:11:16;3.60;;;2.87;;
10872;SDS011;34586;53.616;10.032;2023-04-07T14:13:46;2.17;;;1.90;;
10872;SDS011;34586;53.616;10.032;2023-04-07T14:16:11;2.83;;;2.30;;
10872;SDS011;34586;53.616;10.032;2023-04-07T14:18:37;3.73;;;2.80;;
10872;SDS011;34586;53.616;10.032;2023-04-07T14:21:03;2.97;;;2.50;;
10872;SDS011;34586;53.616;10.032;2023-04-07T14:23:29;3.60;;;2.23;;
10872;SDS011;34586;53.616;10.032;2023-04-07T14:25:58;3.37;;;1.90;;
10872;SDS011;34586;53.616;10.032;2023-04-07T14:28:24;3.27;;;2.20;;
10872;SDS011;34586;53.616;10.032;2023-04-07T14:30:51;4.00;;;2.43;;
10872;SDS011;34586;53.616;10.032;2023-04-07T14:33:16;3.30;;;2.23;;
10872;SDS011;34586;53.616;10.032;2023-04-07T14:35:42;3.67;;;2.40;;
10872;SDS011;34586;53.616;10.032;2023-04-07T14:38:08;2.57;;;2.37;;
10872;SDS011;34586;53.616;10.032;2023-04-07T14:40:34;2.33;;;2.10;;
10872;SDS011;34586;53.616;10.032;2023-04-07T14:43:00;3.50;;;2.20;;
10872;SDS011;34586;53.616;10.032;2023-04-07T14:45:30;6.57;;;2.80;;
10872;SDS011;34586;53.616;10.032;2023-04-07T14:47:56;2.70;;;2.20;;
10872;SDS011;34586;53.616;10.032;2023-04-07T14:50:22;5.90;;;2.77;;
10872;SDS011;34586;53.616;10.032;2023-04-07T14:52:48;3.00;;;2.57;;
10872;SDS011;34586;53.616;10.032;2023-04-07T14:55:14;3.00;;;2.17;;
10872;SDS011;34586;53.616;10.032;2023-04-07T14:57:40;3.53;;;2.80;;
10872;SDS011;34586;53.616;10.032;2023-04-07T15:00:06;4.77;;;2.33;;